Time;durP1;ratioP1;P1;durP2;ratioP2;P2;SDS_P1;SDS_P2;PMS_P1;PMS_P2;Temp;Humidity;BMP_temperature;BMP_pressure;BME280_temperature;BME280_humidity;BME280_pressure;Samples;Min_cycle;Max_cycle;Signal;HPM_P1;HPM_P2
2022/09/18 00:01:38;;;;;;;5.68;3.83;;;;;;;9.34;100.00;99988.78;7394365;19;20488;-68
2022/09/18 00:04:08;;;;;;;5.00;3.58;;;;;;;9.33;100.00;99982.69;7395894;19;20015;-69
2022/09/18 00:06:40;;;;;;;6.47;4.50;;;;;;;9.33;100.00;99987.94;7396346;19;20018;-69
2022/09/18 00:09:13;;;;;;;5.38;4.20;;;;;;;9.34;100.00;99986.16;7395796;19;20037;-68
2022/09/18 00:11:44;;;;;;;6.43;3.60;;;;;;;9.33;100.00;99985.31;7395384;19;20006;-69
2022/09/18 00:14:15;;;;;;;7.60;3.40;;;;;;;9.33;100.00;99981.88;7397052;19;20031;-69
2022/09/18 00:16:44;;;;;;;4.97;3.17;;;;;;;9.32;100.00;99999.31;7395297;19;20031;-69
2022/09/18 00:19:13;;;;;;;3.90;3.28;;;;;;;9.30;100.00;99995.88;7394767;19;20019;-69
2022/09/18 00:21:43;;;;;;;6.63;3.10;;;;;;;9.28;100.00;99995.91;7396311;19;20039;-68
2022/09/18 00:24:16;;;;;;;5.20;2.78;;;;;;;9.27;100.00;99995.97;7395819;19;20015;-68
2022/09/18 00:26:45;;;;;;;4.47;3.10;;;;;;;9.27;100.00;99993.34;7394259;19;20014;-69
2022/09/18 00:29:14;;;;;;;5.43;2.88;;;;;;;9.27;100.00;99996.81;7395173;19;20015;-68
2022/09/18 00:31:43;;;;;;;5.43;3.75;;;;;;;9.26;100.00;100005.59;7394488;19;20022;-68
2022/09/18 00:34:14;;;;;;;6.13;4.10;;;;;;;9.25;100.00;99993.41;7395963;19;20039;-68
2022/09/18 00:36:43;;;;;;;5.50;3.60;;;;;;;9.23;100.00;99997.81;7396244;19;20014;-68
2022/09/18 00:39:15;;;;;;;9.25;4.82;;;;;;;9.24;100.00;100002.16;7393468;19;20516;-68
2022/09/18 00:41:45;;;;;;;9.88;5.65;;;;;;;9.26;100.00;100000.34;7396148;19;20031;-68
2022/09/18 00:44:33;;;;;;;8.18;5.28;;;;;;;9.26;100.00;99994.25;7395227;19;20496;-67
2022/09/18 00:47:08;;;;;;;8.65;5.95;;;;;;;9.26;100.00;100000.34;7395163;19;20014;-68
2022/09/18 00:49:38;;;;;;;7.65;5.78;;;;;;;9.24;100.00;100006.53;7396246;19;20362;-68
2022/09/18 00:52:07;;;;;;;9.85;6.45;;;;;;;9.24;100.00;100006.53;7393853;19;20039;-68
2022/09/18 00:54:41;;;;;;;10.70;5.97;;;;;;;9.24;100.00;100004.75;7392874;19;20473;-67
2022/09/18 00:57:13;;;;;;;10.68;6.60;;;;;;;9.25;100.00;100010.84;7395883;19;20112;-68
2022/09/18 00:59:45;;;;;;;8.77;6.38;;;;;;;9.24;100.00;100002.16;7393571;19;20035;-68
2022/09/18 01:02:14;;;;;;;11.20;6.20;;;;;;;9.26;100.00;100002.09;7394547;19;20548;-68
2022/09/18 01:04:42;;;;;;;11.07;6.32;;;;;;;9.26;100.00;99997.75;7402807;19;20031;-68
2022/09/18 01:07:20;;;;;;;11.43;6.43;;;;;;;9.26;100.00;99995.13;7399416;19;20018;-68
2022/09/18 01:10:00;;;;;;;10.77;6.97;;;;;;;9.27;100.00;100007.28;7401406;19;20018;-69
2022/09/18 01:12:35;;;;;;;11.07;7.03;;;;;;;9.27;100.00;100001.19;7399257;19;20032;-68
2022/09/18 01:15:11;;;;;;;10.18;6.97;;;;;;;9.27;100.00;100007.28;7395910;19;20031;-67
2022/09/18 01:17:45;;;;;;;11.45;7.75;;;;;;;9.29;100.00;100005.50;7400155;19;20035;-67
2022/09/18 01:20:33;;;;;;;14.90;7.00;;;;;;;9.30;100.00;100008.94;7400660;19;20022;-67
2022/09/18 01:23:16;;;;;;;11.52;6.78;;;;;;;9.29;100.00;100013.34;7400407;19;20022;-68
2022/09/18 01:26:01;;;;;;;15.15;7.47;;;;;;;9.31;100.00;100013.28;7401162;19;20030;-68
2022/09/18 01:28:39;;;;;;;14.27;7.70;;;;;;;9.30;100.00;100016.81;7403307;19;20031;-67
2022/09/18 01:31:13;;;;;;;14.88;6.55;;;;;;;9.29;100.00;100018.56;7400345;19;20041;-67
2022/09/18 01:33:48;;;;;;;13.05;7.03;;;;;;;9.29;100.00;100025.59;7400104;19;20018;-67
2022/09/18 01:36:19;;;;;;;10.40;5.75;;;;;;;9.28;100.00;100016.84;7399262;19;20031;-67
2022/09/18 01:38:52;;;;;;;9.48;5.43;;;;;;;9.29;100.00;100021.19;7399143;19;20074;-67
2022/09/18 01:41:25;;;;;;;11.45;6.07;;;;;;;9.30;100.00;100022.03;7402608;19;20489;-67
2022/09/18 01:44:00;;;;;;;11.07;5.75;;;;;;;9.24;100.00;100010.00;7399593;19;20015;-67
2022/09/18 01:46:30;;;;;;;12.40;6.55;;;;;;;9.27;100.00;100020.38;7400114;19;20024;-67
2022/09/18 01:49:02;;;;;;;8.57;5.05;;;;;;;9.26;100.00;100028.28;7399063;19;20019;-67
2022/09/18 01:51:38;;;;;;;7.78;4.32;;;;;;;9.26;100.00;100030.88;7402061;19;20314;-67
2022/09/18 01:54:09;;;;;;;9.30;4.50;;;;;;;9.24;100.00;100020.47;7399674;19;20090;-67
2022/09/18 01:56:43;;;;;;;7.00;4.07;;;;;;;9.24;100.00;100037.94;7399454;19;20035;-67
2022/09/18 01:59:21;;;;;;;8.95;3.95;;;;;;;9.21;100.00;100031.03;7398502;19;20074;-68
2022/09/18 02:01:53;;;;;;;7.18;4.05;;;;;;;9.21;100.00;100038.88;7400080;19;20031;-67
2022/09/18 02:04:26;;;;;;;8.25;4.30;;;;;;;9.21;100.00;100038.00;7399419;19;20106;-67
2022/09/18 02:07:02;;;;;;;7.50;4.15;;;;;;;9.21;100.00;100036.28;7401840;19;20027;-67
2022/09/18 02:09:32;;;;;;;9.18;4.38;;;;;;;9.20;100.00;100037.16;7398900;19;20014;-68
2022/09/18 02:12:03;;;;;;;7.32;4.13;;;;;;;9.21;100.00;100043.25;7400982;19;20032;-68
2022/09/18 02:14:39;;;;;;;10.25;4.47;;;;;;;9.16;100.00;100051.22;7396328;19;20014;-68
2022/09/18 02:17:12;;;;;;;11.82;4.20;;;;;;;9.14;100.00;100053.03;7399033;19;20029;-68
2022/09/18 02:19:48;;;;;;;9.43;4.60;;;;;;;9.13;100.00;100061.78;7400471;19;20126;-68
2022/09/18 02:22:20;;;;;;;11.90;5.05;;;;;;;9.08;100.00;100053.19;7398612;19;20082;-68
2022/09/18 02:24:52;;;;;;;19.70;5.53;;;;;;;9.10;100.00;100060.09;7398537;19;20035;-68
2022/09/18 02:27:22;;;;;;;14.32;6.20;;;;;;;9.11;100.00;100066.19;7400341;19;20082;-68
2022/09/18 02:29:53;;;;;;;18.80;6.22;;;;;;;9.10;100.00;100061.88;7397938;19;20031;-68
2022/09/18 02:32:22;;;;;;;21.00;6.22;;;;;;;9.09;100.00;100050.53;7398980;19;20357;-69
2022/09/18 02:34:50;;;;;;;26.55;6.97;;;;;;;9.08;100.00;100035.72;7398200;19;20066;-67
2022/09/18 02:37:34;;;;;;;25.55;7.15;;;;;;;9.08;100.00;100077.59;7398527;19;20031;-67
2022/09/18 02:40:20;;;;;;;26.88;7.32;;;;;;;9.04;100.00;100069.88;7398321;19;20019;-67
2022/09/18 02:43:01;;;;;;;26.60;7.72;;;;;;;9.02;100.00;100063.81;7400841;19;20488;-68
2022/09/18 02:45:38;;;;;;;32.03;8.57;;;;;;;8.99;100.00;100067.38;7400189;19;20516;-67
2022/09/18 02:48:33;;;;;;;28.30;7.63;;;;;;;8.95;100.00;100074.44;7399588;19;20383;-67
2022/09/18 02:51:11;;;;;;;26.27;6.65;;;;;;;8.93;100.00;100073.63;7398202;19;20031;-68
2022/09/18 02:53:46;;;;;;;26.17;6.40;;;;;;;8.92;100.00;100082.38;7398234;19;20015;-67
2022/09/18 02:56:20;;;;;;;21.27;6.72;;;;;;;8.90;100.00;100078.94;7397921;19;20025;-67
2022/09/18 02:58:51;;;;;;;;;;;;;;;8.87;100.00;100086.88;7398828;19;20014;-67
2022/09/18 03:01:26;;;;;;;26.65;7.22;;;;;;;8.82;100.00;100096.59;7397828;19;19939;-67
2022/09/18 03:03:55;;;;;;;23.80;7.78;;;;;;;8.80;100.00;100090.53;7397709;19;20021;-67
2022/09/18 03:06:24;;;;;;;20.80;5.85;;;;;;;8.79;100.00;100094.03;7397570;19;20086;-67
2022/09/18 03:08:53;;;;;;;33.95;7.47;;;;;;;8.77;100.00;100114.13;7397131;19;20095;-67
2022/09/18 03:11:21;;;;;;;23.75;6.03;;;;;;;8.75;100.00;100108.09;7397103;19;20014;-67
2022/09/18 03:13:50;;;;;;;24.20;5.85;;;;;;;8.75;100.00;100113.31;7410409;19;20017;-68
2022/09/18 03:16:18;;;;;;;18.85;5.35;;;;;;;8.73;100.00;100108.13;7407589;19;20023;-68
2022/09/18 03:18:49;;;;;;;19.45;6.55;;;;;;;8.70;100.00;100105.59;7408818;19;20023;-68
2022/09/18 03:21:24;;;;;;;30.70;6.07;;;;;;;8.73;100.00;100115.09;7407579;19;20070;-69
2022/09/18 03:23:53;;;;;;;18.30;5.50;;;;;;;8.72;100.00;100113.38;7399586;19;20035;-68
2022/09/18 03:26:22;;;;;;;19.52;6.03;;;;;;;8.67;100.00;100107.41;7397868;19;20099;-69
2022/09/18 03:28:51;;;;;;;23.55;6.10;;;;;;;8.72;100.00;100121.22;7397324;19;20018;-69
2022/09/18 03:31:19;;;;;;;19.65;5.65;;;;;;;8.70;100.00;100131.72;7396832;19;20014;-69
2022/09/18 03:33:50;;;;;;;22.38;7.78;;;;;;;8.68;100.00;100111.75;7396097;19;20021;-68
2022/09/18 03:36:19;;;;;;;22.90;6.05;;;;;;;8.67;100.00;100113.50;7398907;19;20021;-68
2022/09/18 03:38:47;;;;;;;17.30;5.07;;;;;;;8.68;100.00;100120.47;7396586;19;20018;-69
2022/09/18 03:41:15;;;;;;;15.10;4.68;;;;;;;8.67;100.00;100142.28;7396363;19;20019;-69
2022/09/18 03:43:44;;;;;;;18.02;4.93;;;;;;;8.68;100.00;100127.44;7395646;19;20015;-69
2022/09/18 03:46:12;;;;;;;21.38;4.60;;;;;;;8.68;100.00;100132.66;7399040;19;20025;-68
2022/09/18 03:48:41;;;;;;;20.30;4.25;;;;;;;8.68;100.00;100140.50;7397847;19;20484;-68
2022/09/18 03:51:19;;;;;;;13.30;4.45;;;;;;;8.67;100.00;100136.16;7395577;19;20381;-69
2022/09/18 03:53:49;;;;;;;14.02;3.42;;;;;;;8.62;100.00;100129.31;7395701;19;20029;-69
2022/09/18 03:56:18;;;;;;;12.18;3.35;;;;;;;8.62;100.00;100146.75;7396260;19;20018;-69
2022/09/18 03:58:47;;;;;;;13.60;3.83;;;;;;;8.60;100.00;100149.38;7395061;19;20488;-69
2022/09/18 04:01:15;;;;;;;18.60;3.72;;;;;;;8.56;100.00;100145.13;7395307;19;20015;-69
2022/09/18 04:03:44;;;;;;;17.63;4.78;;;;;;;8.56;100.00;100159.97;7395174;19;20015;-69
2022/09/18 04:06:15;;;;;;;15.30;3.60;;;;;;;8.55;100.00;100158.25;7395819;19;20086;-69
2022/09/18 04:08:43;;;;;;;15.32;3.10;;;;;;;8.50;100.00;100160.97;7396169;19;20022;-69
2022/09/18 04:11:12;;;;;;;10.18;3.03;;;;;;;8.38;100.00;100135.06;7397054;19;20070;-69
2022/09/18 04:13:40;;;;;;;15.95;3.60;;;;;;;8.46;100.00;100154.09;7394518;19;20007;-69
2022/09/18 04:16:09;;;;;;;17.15;2.67;;;;;;;8.41;100.00;100161.13;7396038;19;20035;-68
2022/09/18 04:18:37;;;;;;;16.60;2.67;;;;;;;8.37;100.00;100169.94;7395752;19;20078;-69
2022/09/18 04:21:06;;;;;;;11.93;2.28;;;;;;;8.32;100.00;100163.03;7395861;19;20015;-69
2022/09/18 04:23:37;;;;;;;13.60;2.97;;;;;;;8.30;100.00;100162.25;7396271;19;20032;-69
2022/09/18 04:26:08;;;;;;;15.70;3.28;;;;;;;8.26;100.00;100157.94;7395577;19;20036;-69
2022/09/18 04:28:36;;;;;;;13.10;2.25;;;;;;;8.25;100.00;100163.22;7394740;19;20395;-69
2022/09/18 04:31:05;;;;;;;20.35;2.35;;;;;;;8.22;100.00;100160.69;7394839;19;20021;-69
2022/09/18 04:33:34;;;;;;;12.90;2.42;;;;;;;8.18;99.99;100164.25;7394392;19;20085;-69
2022/09/18 04:36:02;;;;;;;14.63;2.85;;;;;;;8.16;100.00;100172.09;7394821;19;20018;-68
2022/09/18 04:38:31;;;;;;;12.18;2.40;;;;;;;8.15;100.00;100171.25;7392670;19;20030;-68
2022/09/18 04:41:02;;;;;;;15.10;1.98;;;;;;;8.15;100.00;100171.25;7394308;19;20480;-68
2022/09/18 04:43:31;;;;;;;10.57;2.38;;;;;;;8.13;100.00;100167.81;7394142;19;20014;-69
2022/09/18 04:45:59;;;;;;;13.38;2.78;;;;;;;8.11;100.00;100174.84;7394684;19;20022;-69
2022/09/18 04:48:28;;;;;;;14.35;2.75;;;;;;;8.09;99.44;100186.22;7394724;19;20021;-67
2022/09/18 04:50:56;;;;;;;10.80;2.00;;;;;;;8.05;99.19;100174.09;7394182;19;20019;-69
2022/09/18 04:53:26;;;;;;;12.88;2.03;;;;;;;8.04;99.44;100174.97;7395474;19;20387;-69
2022/09/18 04:55:54;;;;;;;16.67;2.65;;;;;;;8.03;99.74;100175.88;7393992;19;20431;-69
2022/09/18 04:58:25;;;;;;;14.85;2.40;;;;;;;8.02;100.00;100177.63;7396001;19;20380;-68
2022/09/18 05:00:54;;;;;;;15.90;2.95;;;;;;;8.02;100.00;100184.63;7395168;19;20018;-69
2022/09/18 05:03:22;;;;;;;12.30;1.98;;;;;;;7.99;99.11;100185.53;7393560;19;20436;-69
2022/09/18 05:05:51;;;;;;;13.65;2.17;;;;;;;7.98;98.96;100195.09;7395636;19;20022;-69
2022/09/18 05:08:19;;;;;;;12.50;2.05;;;;;;;7.96;99.03;100199.50;7394035;19;20074;-68
2022/09/18 05:10:48;;;;;;;10.40;2.30;;;;;;;7.95;98.78;100199.56;7393587;19;20404;-69
2022/09/18 05:13:16;;;;;;;9.73;1.92;;;;;;;7.92;98.55;100213.53;7393159;19;20510;-69
2022/09/18 05:15:47;;;;;;;14.57;2.35;;;;;;;7.89;98.67;100200.53;7394058;19;20007;-69
2022/09/18 05:18:15;;;;;;;14.43;2.35;;;;;;;7.89;98.96;100199.66;7393317;19;20021;-69
2022/09/18 05:20:44;;;;;;;14.45;2.17;;;;;;;7.87;98.55;100206.66;7393845;19;20368;-68
2022/09/18 05:23:12;;;;;;;11.52;2.08;;;;;;;7.87;98.68;100215.34;7393646;19;20082;-68
2022/09/18 05:25:41;;;;;;;14.82;2.25;;;;;;;7.87;98.79;100217.97;7395354;19;20020;-71
2022/09/18 05:28:12;;;;;;;15.23;2.13;;;;;;;7.86;98.76;100215.38;7394799;19;20427;-68
2022/09/18 05:30:40;;;;;;;14.95;1.88;;;;;;;7.87;98.51;100236.25;7394651;19;20434;-67
2022/09/18 05:33:13;;;;;;;12.50;2.28;;;;;;;7.86;98.39;100231.94;7392918;19;20022;-68
2022/09/18 05:35:41;;;;;;;15.70;2.15;;;;;;;7.86;98.14;100223.22;7394683;19;20480;-69
2022/09/18 05:38:12;;;;;;;13.45;1.95;;;;;;;7.86;98.61;100237.16;7393053;19;20039;-68
2022/09/18 05:40:40;;;;;;;13.73;2.25;;;;;;;7.86;98.14;100244.13;7393060;19;20019;-68
2022/09/18 05:43:10;;;;;;;10.07;2.20;;;;;;;7.85;98.07;100234.56;7392520;19;20018;-68
2022/09/18 05:45:38;;;;;;;13.15;1.95;;;;;;;7.83;97.91;100235.47;7392839;19;20375;-68
2022/09/18 05:48:12;;;;;;;12.60;1.63;;;;;;;7.81;97.79;100233.78;7392915;19;20011;-68
2022/09/18 05:50:41;;;;;;;10.57;2.10;;;;;;;7.81;97.63;100249.44;7398093;19;20527;-68
2022/09/18 05:53:12;;;;;;;9.93;1.80;;;;;;;7.78;98.17;100239.88;7399286;19;20021;-68
2022/09/18 05:55:41;;;;;;;9.93;2.55;;;;;;;7.72;98.12;100239.16;7401776;19;20021;-69
2022/09/18 05:58:13;;;;;;;11.27;2.20;;;;;;;7.77;98.49;100240.81;7399201;19;20014;-69
2022/09/18 06:00:43;;;;;;;9.93;1.60;;;;;;;7.76;98.36;100239.06;7399443;19;20014;-68
2022/09/18 06:03:15;;;;;;;10.85;1.65;;;;;;;7.74;98.61;100230.38;7399453;19;20035;-69
2022/09/18 06:05:44;;;;;;;12.68;2.22;;;;;;;7.75;98.19;100239.94;7399680;19;20036;-68
2022/09/18 06:08:14;;;;;;;11.73;2.10;;;;;;;7.75;98.30;100239.09;7408993;19;20022;-67
2022/09/18 06:10:42;;;;;;;13.05;1.65;;;;;;;7.73;97.99;100243.47;7416460;19;20025;-68
2022/09/18 06:13:14;;;;;;;12.30;2.50;;;;;;;7.73;98.02;100243.47;7417842;19;20190;-68
2022/09/18 06:15:45;;;;;;;12.52;1.83;;;;;;;7.73;98.10;100241.72;7409008;19;20081;-69
2022/09/18 06:18:17;;;;;;;10.63;1.80;;;;;;;7.70;98.06;100230.50;7399399;19;20100;-69
2022/09/18 06:20:52;;;;;;;10.68;1.98;;;;;;;7.77;98.52;100232.97;7402811;19;20074;-68
2022/09/18 06:23:21;;;;;;;14.25;2.30;;;;;;;7.82;98.27;100253.75;7398813;19;20078;-69
2022/09/18 06:25:49;;;;;;;9.57;2.65;;;;;;;7.86;98.23;100247.59;7398717;19;20022;-69
2022/09/18 06:28:17;;;;;;;9.88;2.05;;;;;;;7.88;97.99;100243.19;7398987;19;20085;-67
2022/09/18 06:30:46;;;;;;;10.73;2.00;;;;;;;7.95;97.90;100249.19;7400433;19;20082;-68
2022/09/18 06:33:17;;;;;;;8.75;1.70;;;;;;;7.98;97.67;100244.75;7403659;19;20026;-69
2022/09/18 06:35:47;;;;;;;9.95;1.77;;;;;;;8.04;97.56;100240.28;7400502;19;20010;-70
2022/09/18 06:38:16;;;;;;;10.98;1.67;;;;;;;8.08;97.07;100247.19;7398184;19;20551;-70
2022/09/18 06:40:50;;;;;;;10.65;1.90;;;;;;;8.14;96.64;100255.75;7399143;19;20082;-66
2022/09/18 06:43:19;;;;;;;;;;;;;;;8.18;95.68;100248.72;7399653;19;20041;-71
2022/09/18 06:45:53;;;;;;;13.38;2.33;;;;;;;8.24;96.30;100251.22;7398807;19;19922;-71
2022/09/18 06:48:24;;;;;;;9.40;2.05;;;;;;;8.29;94.72;100262.44;7399349;19;20346;-68
2022/09/18 06:50:54;;;;;;;8.55;1.55;;;;;;;8.34;93.40;100269.31;7401587;19;20083;-69
2022/09/18 06:53:23;;;;;;;10.30;1.80;;;;;;;8.38;93.68;100255.28;7398267;19;20070;-68
2022/09/18 06:55:52;;;;;;;8.77;2.28;;;;;;;8.43;93.98;100258.69;7398830;19;20054;-68
2022/09/18 06:58:21;;;;;;;16.83;1.83;;;;;;;8.47;93.08;100279.53;7399985;19;20418;-68
2022/09/18 07:00:50;;;;;;;10.70;1.73;;;;;;;8.53;93.34;100269.84;7396945;19;20006;-69
2022/09/18 07:03:18;;;;;;;9.18;2.20;;;;;;;8.57;93.11;100272.38;7397243;19;20551;-69
2022/09/18 07:05:49;;;;;;;13.38;3.20;;;;;;;8.60;92.74;100264.44;7398067;19;20040;-69
2022/09/18 07:08:18;;;;;;;11.27;2.40;;;;;;;8.66;92.47;100273.94;7397722;19;20082;-68
2022/09/18 07:10:46;;;;;;;14.90;2.13;;;;;;;8.69;93.21;100260.78;7397230;19;20018;-69
2022/09/18 07:13:14;;;;;;;10.63;1.83;;;;;;;8.74;92.64;100265.91;7399367;19;20041;-69
2022/09/18 07:15:43;;;;;;;9.25;1.70;;;;;;;8.76;91.20;100277.22;7397981;19;20078;-68
2022/09/18 07:18:11;;;;;;;8.35;1.90;;;;;;;8.82;91.47;100269.25;7400067;19;20125;-68
2022/09/18 07:20:40;;;;;;;8.52;1.48;;;;;;;8.87;91.27;100270.00;7399669;19;20018;-69
2022/09/18 07:23:11;;;;;;;10.60;1.67;;;;;;;8.91;90.20;100273.38;7400135;19;20408;-69
2022/09/18 07:25:39;;;;;;;8.48;1.25;;;;;;;8.95;89.27;100288.97;7398609;19;20015;-69
2022/09/18 07:28:09;;;;;;;8.68;2.40;;;;;;;9.01;87.79;100276.66;7397560;19;20074;-69
2022/09/18 07:30:39;;;;;;;10.05;1.25;;;;;;;9.05;88.83;100273.94;7396608;19;20014;-68
2022/09/18 07:33:09;;;;;;;9.27;1.60;;;;;;;9.06;88.07;100285.25;7396596;19;20428;-69
2022/09/18 07:35:38;;;;;;;6.75;1.48;;;;;;;9.10;88.78;100272.06;7397401;19;20011;-68
2022/09/18 07:38:08;;;;;;;9.50;1.77;;;;;;;9.13;87.73;100274.59;7399027;19;20082;-69
2022/09/18 07:40:41;;;;;;;7.25;1.70;;;;;;;9.12;88.92;100285.13;7396956;19;20040;-68
2022/09/18 07:43:11;;;;;;;5.78;1.63;;;;;;;9.23;88.53;100284.88;7397196;19;20018;-69
2022/09/18 07:45:40;;;;;;;11.75;2.17;;;;;;;9.26;87.71;100274.31;7398675;19;20416;-69
2022/09/18 07:48:09;;;;;;;8.32;1.67;;;;;;;9.33;86.82;100283.75;7396622;19;20457;-69
2022/09/18 07:50:38;;;;;;;8.13;1.63;;;;;;;9.38;86.74;100284.50;7396991;19;20347;-69
2022/09/18 07:53:07;;;;;;;15.75;2.58;;;;;;;9.43;86.83;100273.94;7396216;19;20376;-69
2022/09/18 07:55:41;;;;;;;8.25;1.55;;;;;;;9.40;86.68;100266.13;7396465;19;20349;-69
2022/09/18 07:58:09;;;;;;;4.28;1.00;;;;;;;9.53;85.96;100280.66;7399287;19;20019;-69
2022/09/18 08:00:39;;;;;;;8.48;1.77;;;;;;;9.55;84.70;100270.13;7396592;19;20015;-69
2022/09/18 08:03:10;;;;;;;10.13;1.45;;;;;;;9.57;85.33;100277.06;7397833;19;20580;-69
2022/09/18 08:05:40;;;;;;;9.73;1.75;;;;;;;9.61;85.22;100270.00;7396651;19;20044;-69
2022/09/18 08:08:11;;;;;;;8.00;1.38;;;;;;;9.66;85.06;100285.59;7397381;19;20075;-69
2022/09/18 08:10:44;;;;;;;10.20;1.63;;;;;;;9.59;84.34;100253.44;7398625;19;20029;-69
2022/09/18 08:13:14;;;;;;;10.43;1.73;;;;;;;9.78;84.85;100280.91;7396044;19;20015;-69
2022/09/18 08:15:44;;;;;;;8.70;1.42;;;;;;;9.86;84.44;100278.06;7395954;19;20078;-69
2022/09/18 08:18:12;;;;;;;11.63;2.25;;;;;;;9.92;81.36;100267.44;7399399;19;20025;-69
2022/09/18 08:20:41;;;;;;;8.43;1.30;;;;;;;10.01;82.67;100283.78;7395966;19;20118;-70
2022/09/18 08:23:11;;;;;;;10.95;2.00;;;;;;;10.08;81.66;100285.34;7396103;19;20019;-69
2022/09/18 08:25:42;;;;;;;14.95;2.47;;;;;;;10.18;81.45;100265.00;7396128;19;20018;-69
2022/09/18 08:28:12;;;;;;;7.32;1.52;;;;;;;10.24;82.48;100284.03;7398806;19;20014;-69
2022/09/18 08:30:40;;;;;;;7.15;1.40;;;;;;;10.30;80.97;100280.41;7398859;19;20025;-68
2022/09/18 08:33:09;;;;;;;6.28;1.27;;;;;;;10.33;80.67;100282.91;7396920;19;20019;-69
2022/09/18 08:35:38;;;;;;;10.32;1.83;;;;;;;10.34;80.96;100283.81;7397307;19;20078;-69
2022/09/18 08:38:09;;;;;;;6.63;1.50;;;;;;;10.35;78.75;100282.88;7396958;19;20081;-69
2022/09/18 08:41:15;;;;;;;8.15;1.45;;;;;;;10.42;79.36;100273.97;7397127;19;20010;-69
2022/09/18 08:44:02;;;;;;;7.63;1.80;;;;;;;10.49;80.38;100264.16;7393846;19;20109;-69
2022/09/18 08:46:37;;;;;;;10.05;2.80;;;;;;;10.53;76.71;100279.75;7398584;19;20015;-69
2022/09/18 08:49:22;;;;;;;11.75;1.45;;;;;;;10.58;77.04;100264.75;7397916;19;20011;-69
2022/09/18 08:51:56;;;;;;;10.45;1.48;;;;;;;10.67;78.62;100268.03;7395808;19;20011;-69
2022/09/18 08:54:37;;;;;;;9.85;1.63;;;;;;;10.75;76.07;100263.38;7396472;19;20075;-69
2022/09/18 08:57:20;;;;;;;10.05;1.27;;;;;;;10.82;76.38;100257.06;7398218;19;20436;-69
2022/09/18 08:59:53;;;;;;;8.00;1.40;;;;;;;10.94;77.67;100265.47;7395930;19;20078;-69
2022/09/18 09:02:32;;;;;;;13.15;1.80;;;;;;;11.02;76.97;100266.94;7395541;19;20074;-69
2022/09/18 09:05:05;;;;;;;10.10;2.25;;;;;;;11.13;76.62;100263.09;7395935;19;20029;-69
2022/09/18 09:07:58;;;;;;;9.43;1.83;;;;;;;11.20;73.69;100248.88;7395801;19;20019;-69
2022/09/18 09:10:39;;;;;;;8.80;1.23;;;;;;;11.19;73.28;100269.00;7401464;19;20066;-69
2022/09/18 09:13:25;;;;;;;6.95;1.08;;;;;;;11.19;73.24;100258.50;7401146;19;20018;-69
2022/09/18 09:15:58;;;;;;;9.63;1.58;;;;;;;11.12;74.49;100246.50;7400562;19;20014;-69
2022/09/18 09:18:33;;;;;;;7.50;1.08;;;;;;;11.21;73.11;100256.72;7399814;19;20054;-69
2022/09/18 09:21:14;;;;;;;7.28;0.90;;;;;;;11.29;74.68;100253.00;7394910;19;20014;-69
2022/09/18 09:24:05;;;;;;;6.25;1.10;;;;;;;11.38;74.30;100261.41;7398351;19;20018;-70
2022/09/18 09:26:36;;;;;;;7.93;1.30;;;;;;;11.48;71.80;100254.06;7402592;19;20018;-69
2022/09/18 09:29:14;;;;;;;7.32;1.30;;;;;;;11.52;72.27;100258.31;7404862;19;20423;-70
2022/09/18 09:31:47;;;;;;;10.25;1.27;;;;;;;11.52;70.76;100271.44;7405003;19;20036;-68
2022/09/18 09:34:21;;;;;;;4.75;0.93;;;;;;;11.53;72.41;100269.69;7402045;19;20544;-69
2022/09/18 09:36:53;;;;;;;5.63;1.33;;;;;;;11.54;70.98;100250.41;7402588;19;20078;-69
2022/09/18 09:39:26;;;;;;;4.22;0.93;;;;;;;11.61;72.27;100248.41;7402396;19;20022;-70
2022/09/18 09:42:24;;;;;;;7.53;1.45;;;;;;;11.65;71.98;100240.41;7403551;19;20007;-69
2022/09/18 09:44:59;;;;;;;8.38;1.40;;;;;;;11.71;68.74;100244.56;7402752;19;20022;-70
2022/09/18 09:47:35;;;;;;;7.45;1.40;;;;;;;11.68;70.16;100235.00;7401793;19;20484;-70
2022/09/18 09:50:28;;;;;;;8.00;1.02;;;;;;;11.78;68.65;100238.19;7405652;19;20043;-69
2022/09/18 09:53:02;;;;;;;7.17;1.67;;;;;;;11.84;70.63;100239.72;7408323;19;20094;-69
2022/09/18 09:55:34;;;;;;;6.50;1.48;;;;;;;11.93;68.51;100230.66;7405934;19;20428;-69
2022/09/18 09:58:13;;;;;;;9.18;1.30;;;;;;;12.01;67.12;100237.41;7407479;19;20017;-69
2022/09/18 10:00:50;;;;;;;12.80;4.05;;;;;;;12.03;68.94;100261.00;7405563;19;20089;-69
2022/09/18 10:03:49;;;;;;;6.68;1.33;;;;;;;11.94;74.25;100264.78;7408427;19;20085;-70
2022/09/18 10:06:30;;;;;;;6.68;1.38;;;;;;;11.56;74.53;100256.44;7406914;19;20014;-70
2022/09/18 10:09:04;;;;;;;7.07;1.52;;;;;;;11.21;75.98;100251.47;7408741;19;20421;-70
2022/09/18 10:11:36;;;;;;;;;;;;;;;10.96;78.47;100238.25;7410820;19;20027;-70
2022/09/18 10:14:23;;;;;;;5.82;1.67;;;;;;;10.74;78.63;100240.66;7407747;19;19919;-69
2022/09/18 10:16:57;;;;;;;7.95;1.70;;;;;;;10.67;79.62;100242.63;7410728;19;20051;-70
2022/09/18 10:19:35;;;;;;;7.28;1.48;;;;;;;10.63;80.33;100246.25;7415533;19;20011;-70
2022/09/18 10:22:07;;;;;;;8.68;1.40;;;;;;;10.62;80.45;100236.66;7411886;19;20018;-70
2022/09/18 10:24:45;;;;;;;7.93;1.30;;;;;;;10.62;79.37;100243.69;7417257;19;20040;-70
2022/09/18 10:27:16;;;;;;;6.20;1.45;;;;;;;10.62;79.25;100241.06;7427198;19;20025;-69
2022/09/18 10:29:45;;;;;;;8.70;1.85;;;;;;;10.65;79.86;100239.19;7429138;19;20014;-70
2022/09/18 10:32:33;;;;;;;10.98;2.38;;;;;;;10.72;79.90;100226.75;7425925;19;20015;-70
2022/09/18 10:35:02;;;;;;;8.27;1.73;;;;;;;10.76;78.93;100213.47;7425506;19;20022;-70
2022/09/18 10:37:42;;;;;;;9.52;1.67;;;;;;;10.86;74.82;100231.56;7409262;19;20074;-70
2022/09/18 10:40:31;;;;;;;6.90;1.83;;;;;;;11.03;73.21;100225.78;7409853;19;20040;-69
2022/09/18 10:43:00;;;;;;;7.70;1.23;;;;;;;11.21;72.48;100229.59;7407432;19;20083;-70
2022/09/18 10:45:30;;;;;;;12.05;1.00;;;;;;;11.37;73.30;100222.06;7409543;19;20022;-69
2022/09/18 10:48:15;;;;;;;4.90;0.90;;;;;;;11.47;68.17;100230.50;7405161;19;20484;-69
2022/09/18 10:50:53;;;;;;;4.55;1.90;;;;;;;11.55;68.21;100229.34;7402625;19;20036;-69
2022/09/18 10:53:32;;;;;;;6.88;1.08;;;;;;;11.60;68.56;100220.44;7403053;19;20090;-69
2022/09/18 10:56:06;;;;;;;7.32;1.23;;;;;;;11.64;69.08;100227.28;7403056;19;20018;-69
2022/09/18 10:58:35;;;;;;;5.85;0.90;;;;;;;11.65;69.77;100213.25;7400898;19;20026;-69
2022/09/18 11:01:07;;;;;;;7.28;1.20;;;;;;;11.69;70.16;100199.94;7402441;19;20018;-69
2022/09/18 11:03:42;;;;;;;6.53;0.88;;;;;;;11.78;69.95;100197.88;7399357;19;20011;-69
2022/09/18 11:06:18;;;;;;;7.72;1.05;;;;;;;11.86;67.27;100196.72;7400768;19;20023;-69
2022/09/18 11:08:50;;;;;;;10.52;1.10;;;;;;;11.97;62.79;100185.00;7400825;19;20014;-69
2022/09/18 11:11:29;;;;;;;9.68;1.65;;;;;;;12.07;65.88;100186.38;7403018;19;20022;-69
2022/09/18 11:14:00;;;;;;;6.72;1.48;;;;;;;12.20;63.61;100186.78;7401241;19;20051;-69
2022/09/18 11:16:31;;;;;;;4.88;1.42;;;;;;;12.31;65.33;100170.56;7400495;19;20491;-68
2022/09/18 11:19:10;;;;;;;11.13;2.97;;;;;;;12.48;62.50;100165.53;7400216;19;20441;-69
2022/09/18 11:21:46;;;;;;;3.33;1.17;;;;;;;12.64;62.58;100171.06;7398600;19;20014;-70
2022/09/18 11:24:23;;;;;;;3.05;0.80;;;;;;;12.78;62.01;100164.41;7410494;19;20023;-69
2022/09/18 11:26:53;;;;;;;6.82;1.10;;;;;;;12.94;63.47;100167.25;7421176;19;20015;-69
2022/09/18 11:29:29;;;;;;;9.57;3.30;;;;;;;13.01;60.74;100168.72;7421277;19;20015;-70
2022/09/18 11:32:03;;;;;;;4.72;0.77;;;;;;;13.08;62.77;100162.28;7412083;19;20027;-69
2022/09/18 11:34:38;;;;;;;9.23;1.55;;;;;;;13.16;61.78;100162.81;7399595;19;20074;-69
2022/09/18 11:37:10;;;;;;;4.47;1.15;;;;;;;13.15;58.96;100153.19;7400822;19;20017;-69
2022/09/18 11:39:42;;;;;;;8.75;1.20;;;;;;;13.31;61.52;100163.94;7399475;19;20091;-70
2022/09/18 11:42:14;;;;;;;3.22;0.85;;;;;;;13.41;59.34;100158.28;7398632;19;20031;-70
2022/09/18 11:44:43;;;;;;;7.50;1.10;;;;;;;13.41;56.95;100153.03;7398880;19;20078;-70
2022/09/18 11:47:25;;;;;;;5.50;1.08;;;;;;;13.47;57.36;100158.91;7397517;19;20544;-68
2022/09/18 11:50:04;;;;;;;6.28;1.17;;;;;;;13.47;58.30;100168.56;7399497;19;20480;-70